createdAt,value
2022-08-19T00:01:53.818Z,100664.53
2022-08-19T00:04:23.149Z,100663.69
2022-08-19T00:06:49.847Z,100658.16
2022-08-19T00:09:19.254Z,100649.88
2022-08-19T00:11:47.377Z,100644.84
2022-08-19T00:14:16.091Z,100646.41
2022-08-19T00:16:44.217Z,100642.22
2022-08-19T00:19:11.092Z,100647.34
2022-08-19T00:21:37.717Z,100645.06
2022-08-19T00:24:04.558Z,100649.97
2022-08-19T00:26:31.233Z,100655.50
2022-08-19T00:28:59.139Z,100644.00
2022-08-19T00:31:25.703Z,100646.50
2022-08-19T00:33:52.242Z,100640.75
2022-08-19T00:36:18.814Z,100641.59
2022-08-19T00:38:45.678Z,100633.81
2022-08-19T00:41:15.472Z,100640.63
2022-08-19T00:43:42.068Z,100638.34
2022-08-19T00:46:10.157Z,100636.66
2022-08-19T00:48:37.047Z,100647.97
2022-08-19T00:51:07.396Z,100643.50
2022-08-19T00:53:34.068Z,100644.09
2022-08-19T00:56:03.212Z,100648.78
2022-08-19T00:58:33.290Z,100646.00
2022-08-19T01:01:00.608Z,100637.72
2022-08-19T01:03:28.618Z,100628.38
2022-08-19T01:05:56.365Z,100625.88
2022-08-19T01:08:24.017Z,100620.22
2022-08-19T01:10:54.505Z,100619.38
2022-08-19T01:13:24.118Z,100616.00
2022-08-19T01:15:54.706Z,100613.13
2022-08-19T01:18:22.540Z,100618.91
2022-08-19T01:20:51.638Z,100613.84
2022-08-19T01:23:20.778Z,100628.06
2022-08-19T01:25:50.412Z,100629.56
2022-08-19T01:28:34.312Z,100632.91
2022-08-19T01:31:08.353Z,100642.88
2022-08-19T01:33:35.148Z,100637.84
2022-08-19T01:36:07.764Z,100646.13
2022-08-19T01:38:44.017Z,100657.75
2022-08-19T01:41:11.819Z,100667.22
2022-08-19T01:43:38.384Z,100673.38
2022-08-19T01:46:25.184Z,100676.50
2022-08-19T01:48:51.854Z,100681.53
2022-08-19T01:51:18.450Z,100682.16
2022-08-19T01:53:48.275Z,100684.66
2022-08-19T01:56:14.979Z,100700.16
2022-08-19T01:58:46.047Z,100692.13
2022-08-19T02:01:13.367Z,100695.09
2022-08-19T02:03:40.066Z,100694.03
2022-08-19T02:06:07.034Z,100695.94
2022-08-19T02:08:37.486Z,100701.47
2022-08-19T02:11:07.832Z,100703.97
2022-08-19T02:13:35.461Z,100700.16
2022-08-19T02:16:04.289Z,100710.13
2022-08-19T02:18:31.183Z,100705.19
2022-08-19T02:20:57.765Z,100690.78
2022-08-19T02:23:24.331Z,100686.59
2022-08-19T02:25:52.477Z,100672.41
2022-08-19T02:28:20.497Z,100678.41
2022-08-19T02:30:48.662Z,100657.88
2022-08-19T02:33:15.711Z,100658.59
2022-08-19T02:35:43.133Z,100639.38
2022-08-19T02:38:10.021Z,100629.25
2022-08-19T02:40:37.886Z,100597.09
2022-08-19T02:43:06.328Z,100575.63
2022-08-19T02:45:34.736Z,100568.53
2022-08-19T02:48:01.382Z,100563.13
2022-08-19T02:50:30.053Z,100562.75
2022-08-19T02:52:56.669Z,100555.19
2022-08-19T02:55:23.299Z,100546.78
2022-08-19T02:57:49.973Z,100555.75
2022-08-19T03:00:17.163Z,100565.31
2022-08-19T03:02:45.171Z,100573.22
2022-08-19T03:05:11.971Z,100558.84
2022-08-19T03:07:38.627Z,100569.88
2022-08-19T03:10:06.492Z,100566.75
2022-08-19T03:12:36.960Z,100558.56
2022-08-19T03:15:04.740Z,100553.50
2022-08-19T03:17:31.391Z,100553.94
2022-08-19T03:19:59.567Z,100545.56
2022-08-19T03:22:26.161Z,100549.75
2022-08-19T03:24:52.712Z,100548.06
2022-08-19T03:27:19.264Z,100544.47
2022-08-19T03:29:45.771Z,100543.41
2022-08-19T03:32:32.133Z,100543.88
2022-08-19T03:35:00.268Z,100545.56
2022-08-19T03:37:26.815Z,100552.28
2022-08-19T03:39:53.472Z,100557.31
2022-08-19T03:42:32.991Z,100550.97
2022-08-19T03:45:07.862Z,100546.78
2022-08-19T03:47:34.478Z,100549.53
2022-08-19T03:50:02.976Z,100551.44
2022-08-19T03:52:29.541Z,100550.25
2022-08-19T03:54:56.142Z,100546.00
2022-08-19T03:57:30.648Z,100546.50
2022-08-19T04:00:06.846Z,100560.75
2022-08-19T04:02:39.938Z,100549.94
2022-08-19T04:05:08.566Z,100551.47
2022-08-19T04:07:35.124Z,100557.22
2022-08-19T04:10:01.702Z,100566.09
2022-08-19T04:12:29.102Z,100562.50
2022-08-19T04:14:55.681Z,100571.59
2022-08-19T04:17:22.210Z,100565.25
2022-08-19T04:19:48.891Z,100569.06
2022-08-19T04:22:16.837Z,100574.59
2022-08-19T04:24:43.404Z,100575.91
2022-08-19T04:27:09.959Z,100567.84
2022-08-19T04:29:36.496Z,100579.09
2022-08-19T04:32:09.142Z,100580.19
2022-08-19T04:34:37.171Z,100583.53
2022-08-19T04:37:25.404Z,100578.03
2022-08-19T04:39:52.007Z,100577.19
2022-08-19T04:42:30.867Z,100585.22
2022-08-19T04:44:57.780Z,100591.38
2022-08-19T04:47:49.115Z,100593.28
2022-08-19T04:50:12.243Z,100597.09
2022-08-19T04:52:40.423Z,100599.22
2022-08-19T04:55:07.537Z,100599.22
2022-08-19T04:57:34.191Z,100604.50
2022-08-19T05:00:00.757Z,100600.69
2022-08-19T05:02:27.321Z,100596.88
2022-08-19T05:04:58.114Z,100583.47
2022-08-19T05:07:24.674Z,100590.63
2022-08-19T05:09:58.215Z,100585.97
2022-08-19T05:12:29.177Z,100578.81
2022-08-19T05:14:56.802Z,100573.28
2022-08-19T05:17:27.522Z,100575.78
2022-08-19T05:19:55.540Z,100576.66
2022-08-19T05:22:22.127Z,100566.00
2022-08-19T05:25:11.283Z,100560.47
2022-08-19T05:27:36.927Z,100561.63
2022-08-19T05:30:05.108Z,100554.78
2022-08-19T05:32:31.745Z,100550.75
2022-08-19T05:34:58.311Z,100550.66
2022-08-19T05:37:24.888Z,100553.78
2022-08-19T05:39:51.834Z,100558.16
2022-08-19T05:42:18.508Z,100557.19
2022-08-19T05:44:46.487Z,100561.91
2022-08-19T05:47:14.421Z,100573.44
2022-08-19T05:49:41.398Z,100573.31
2022-08-19T05:52:10.609Z,100578.03
2022-08-19T05:54:38.896Z,100579.75
2022-08-19T05:57:05.498Z,100577.63
2022-08-19T05:59:32.115Z,100579.78
2022-08-19T06:02:00.008Z,100589.88
2022-08-19T06:04:26.614Z,100597.66
2022-08-19T06:06:54.605Z,100590.13
2022-08-19T06:09:22.539Z,100593.00
2022-08-19T06:11:54.110Z,100585.78
2022-08-19T06:14:27.929Z,100590.25
2022-08-19T06:16:55.259Z,100594.44
2022-08-19T06:19:23.995Z,100586.72
2022-08-19T06:21:51.703Z,100581.59
2022-08-19T06:24:20.732Z,100574.25
2022-08-19T06:26:49.922Z,100571.25
2022-08-19T06:29:23.426Z,100573.78
2022-08-19T06:31:53.018Z,100574.72
2022-08-19T06:34:20.279Z,100583.09
2022-08-19T06:36:50.381Z,100587.47
2022-08-19T06:39:19.086Z,100585.19
2022-08-19T06:41:51.791Z,100581.81
2022-08-19T06:44:22.710Z,100589.59
2022-08-19T06:46:54.867Z,100607.97
2022-08-19T06:49:21.882Z,100624.78
2022-08-19T06:51:51.790Z,100625.47
2022-08-19T06:54:20.265Z,100630.50
2022-08-19T06:56:47.457Z,100631.47
2022-08-19T06:59:16.567Z,100629.03
2022-08-19T07:01:46.300Z,100630.50
2022-08-19T07:04:14.954Z,100623.00
2022-08-19T07:06:44.377Z,100623.00
2022-08-19T07:09:18.423Z,100627.72
2022-08-19T07:11:46.652Z,100620.25
2022-08-19T07:14:19.400Z,100610.28
2022-08-19T07:16:46.594Z,100607.25
2022-08-19T07:19:15.913Z,100608.94
2022-08-19T07:21:43.162Z,100608.84
2022-08-19T07:24:10.011Z,100618.25
2022-08-19T07:26:42.957Z,100618.81
2022-08-19T07:29:10.513Z,100618.94
2022-08-19T07:31:37.132Z,100638.97
2022-08-19T07:34:06.216Z,100632.13
2022-08-19T07:36:32.882Z,100639.31
2022-08-19T07:39:00.715Z,100637.66
2022-08-19T07:41:29.041Z,100649.19
2022-08-19T07:43:57.149Z,100650.53
2022-08-19T07:46:23.721Z,100654.13
2022-08-19T07:48:52.211Z,100661.94
2022-08-19T07:51:29.541Z,100661.09
2022-08-19T07:54:04.726Z,100651.09
2022-08-19T07:56:31.619Z,100654.72
2022-08-19T07:58:59.482Z,100655.22
2022-08-19T08:01:28.269Z,100651.59
2022-08-19T08:03:56.817Z,100650.19
2022-08-19T08:06:23.541Z,100655.84
2022-08-19T08:08:50.131Z,100655.50
2022-08-19T08:11:20.895Z,100653.22
2022-08-19T08:13:48.637Z,100650.94
2022-08-19T08:16:29.898Z,100662.47
2022-08-19T08:18:56.712Z,100670.19
2022-08-19T08:21:24.251Z,100674.03
2022-08-19T08:23:53.185Z,100672.34
2022-08-19T08:26:20.974Z,100675.72
2022-08-19T08:28:47.959Z,100678.72
2022-08-19T08:31:16.079Z,100679.56
2022-08-19T08:33:44.215Z,100680.41
2022-08-19T08:36:12.213Z,100684.25
2022-08-19T08:38:41.019Z,100687.72
2022-08-19T08:41:18.567Z,100694.94
2022-08-19T08:43:47.242Z,100694.59
2022-08-19T08:46:30.490Z,100684.84
2022-08-19T08:49:05.960Z,100690.03
2022-08-19T08:51:36.430Z,100686.41
2022-08-19T08:54:06.962Z,100685.00
2022-08-19T08:56:34.205Z,100680.31
2022-08-19T08:59:05.362Z,100690.03
2022-08-19T09:01:32.095Z,100693.13
2022-08-19T09:04:02.795Z,100712.03
2022-08-19T09:06:40.583Z,100709.59
2022-08-19T09:09:17.925Z,100709.34
2022-08-19T09:12:05.231Z,100702.97
2022-08-19T09:14:50.281Z,100711.03
2022-08-19T09:17:18.537Z,100709.72
2022-08-19T09:19:55.688Z,100719.44
2022-08-19T09:22:25.570Z,100724.47
2022-08-19T09:24:53.314Z,100708.75
2022-08-19T09:27:20.327Z,100707.44
2022-08-19T09:29:47.018Z,100704.91
2022-08-19T09:32:26.441Z,100702.13
2022-08-19T09:34:55.372Z,100707.78
2022-08-19T09:37:22.331Z,100708.13
2022-08-19T09:39:51.941Z,100698.75
2022-08-19T09:42:29.715Z,100705.94
2022-08-19T09:44:57.198Z,100709.94
2022-08-19T09:47:26.620Z,100707.41
2022-08-19T09:49:53.179Z,100698.63
2022-08-19T09:52:21.250Z,100698.38
2022-08-19T09:54:51.982Z,100691.78
2022-08-19T09:57:18.848Z,100687.44
2022-08-19T09:59:45.423Z,100688.63
2022-08-19T10:02:12.049Z,100687.53
2022-08-19T10:04:39.333Z,100692.81
2022-08-19T10:07:07.021Z,100700.88
2022-08-19T10:09:35.784Z,100700.88
2022-08-19T10:12:03.773Z,100700.03
2022-08-19T10:14:30.689Z,100698.34
2022-08-19T10:16:59.231Z,100701.38
2022-08-19T10:19:26.470Z,100708.09
2022-08-19T10:21:53.526Z,100710.25
2022-08-19T10:24:20.197Z,100698.00
2022-08-19T10:26:48.434Z,100695.84
2022-08-19T10:29:32.897Z,100702.56
2022-08-19T10:32:02.635Z,100693.78
2022-08-19T10:34:30.841Z,100699.66
2022-08-19T10:37:00.593Z,100698.94
2022-08-19T10:39:28.656Z,100694.81
2022-08-19T10:41:58.876Z,100698.44
2022-08-19T10:44:32.304Z,100695.19
2022-08-19T10:47:00.394Z,100687.13
2022-08-19T10:49:28.020Z,100690.97
2022-08-19T10:51:55.153Z,100674.66
2022-08-19T10:54:31.142Z,100674.66
2022-08-19T10:57:00.586Z,100682.28
2022-08-19T10:59:35.282Z,100680.47
2022-08-19T11:02:05.888Z,100675.03
2022-08-19T11:04:32.585Z,100678.88
2022-08-19T11:06:59.130Z,100679.63
2022-08-19T11:09:33.699Z,100679.38
2022-08-19T11:12:02.805Z,100682.81
2022-08-19T11:14:31.323Z,100682.81
2022-08-19T11:17:00.680Z,100687.28
2022-08-19T11:19:27.398Z,100690.06
2022-08-19T11:21:54.504Z,100700.03
2022-08-19T11:24:26.251Z,100698.69
2022-08-19T11:27:01.119Z,100699.63
2022-08-19T11:29:29.270Z,100702.50
2022-08-19T11:31:55.947Z,100700.59
2022-08-19T11:34:25.847Z,100693.69
2022-08-19T11:36:52.696Z,100698.28
2022-08-19T11:39:20.959Z,100691.34
2022-08-19T11:41:48.109Z,100685.78
2022-08-19T11:44:14.990Z,100699.41
2022-08-19T11:46:44.265Z,100703.72
2022-08-19T11:49:13.973Z,100691.84
2022-08-19T11:51:41.640Z,100698.78
2022-08-19T11:54:08.370Z,100703.59
2022-08-19T11:56:35.057Z,100709.47
2022-08-19T11:59:02.158Z,100710.31
2022-08-19T12:01:29.068Z,100715.84
2022-08-19T12:03:58.166Z,100726.34
2022-08-19T12:06:28.052Z,100729.09
2022-08-19T12:08:55.226Z,100735.72
2022-08-19T12:11:22.272Z,100726.34
2022-08-19T12:13:49.045Z,100726.06
2022-08-19T12:16:17.743Z,100723.91
2022-08-19T12:18:45.319Z,100723.16
2022-08-19T12:21:13.717Z,100725.53
2022-08-19T12:23:40.744Z,100722.88
2022-08-19T12:26:09.481Z,100721.19
2022-08-19T12:28:36.522Z,100715.91
2022-08-19T12:31:03.200Z,100723.13
2022-08-19T12:33:29.931Z,100713.47
2022-08-19T12:36:02.109Z,100718.75
2022-08-19T12:38:30.080Z,100715.41
2022-08-19T12:41:00.175Z,100720.97
2022-08-19T12:43:27.295Z,100723.13
2022-08-19T12:45:53.957Z,100732.50
2022-08-19T12:48:34.246Z,100732.28
2022-08-19T12:51:01.969Z,100736.59
2022-08-19T12:53:30.061Z,100724.91
2022-08-19T12:55:56.775Z,100729.88
2022-08-19T12:58:27.206Z,100742.03
2022-08-19T13:00:54.641Z,100740.84
2022-08-19T13:03:21.759Z,100734.97
2022-08-19T13:05:48.402Z,100737.97
2022-08-19T13:08:14.961Z,100736.81
2022-08-19T13:10:42.910Z,100742.84
2022-08-19T13:13:10.480Z,100742.72
2022-08-19T13:15:39.221Z,100739.69
2022-08-19T13:18:06.007Z,100736.13
2022-08-19T13:20:32.764Z,100742.22
2022-08-19T13:22:59.316Z,100733.25
2022-08-19T13:25:26.458Z,100740.38
2022-08-19T13:27:54.490Z,100737.31
2022-08-19T13:30:21.442Z,100736.75
2022-08-19T13:32:48.911Z,100740.94
2022-08-19T13:35:16.946Z,100740.38
2022-08-19T13:37:44.146Z,100745.63
2022-08-19T13:40:14.392Z,100758.72
2022-08-19T13:42:41.310Z,100750.44
2022-08-19T13:45:10.419Z,100742.13
2022-08-19T13:47:37.214Z,100742.13
2022-08-19T13:50:03.971Z,100743.31
2022-08-19T13:52:30.592Z,100737.78
2022-08-19T13:54:57.356Z,100740.31
2022-08-19T13:57:23.944Z,100738.50
2022-08-19T13:59:50.558Z,100731.09
2022-08-19T14:02:18.496Z,100726.00
2022-08-19T14:04:45.157Z,100724.31
2022-08-19T14:07:11.768Z,100728.09
2022-08-19T14:09:38.317Z,100725.50
2022-08-19T14:12:05.564Z,100714.84
2022-08-19T14:14:32.224Z,100716.00
2022-08-19T14:16:58.780Z,100715.25
2022-08-19T14:19:29.994Z,100711.63
2022-08-19T14:21:56.995Z,100710.56
2022-08-19T14:24:23.558Z,100717.19
2022-08-19T14:26:50.109Z,100721.91
2022-08-19T14:29:17.207Z,100728.44
2022-08-19T14:31:44.042Z,100733.91
2022-08-19T14:34:11.437Z,100731.63
2022-08-19T14:36:39.503Z,100731.88
2022-08-19T14:39:06.459Z,100732.63
2022-08-19T14:41:33.052Z,100733.72
2022-08-19T14:43:59.819Z,100730.94
2022-08-19T14:46:29.604Z,100736.47
2022-08-19T14:48:57.070Z,100729.53
2022-08-19T14:51:26.972Z,100729.19
2022-08-19T14:53:55.174Z,100731.88
2022-08-19T14:56:24.605Z,100736.03
2022-08-19T14:58:51.263Z,100743.53
2022-08-19T15:01:18.772Z,100739.09
2022-08-19T15:03:45.373Z,100745.09
2022-08-19T15:06:12.802Z,100755.84
2022-08-19T15:08:41.887Z,100755.63
2022-08-19T15:11:11.885Z,100753.63
2022-08-19T15:13:38.885Z,100759.63
2022-08-19T15:16:05.935Z,100764.47
2022-08-19T15:18:42.123Z,100763.19
2022-08-19T15:21:08.749Z,100763.94
2022-08-19T15:23:35.426Z,100764.56
2022-08-19T15:26:02.119Z,100764.44
2022-08-19T15:28:30.121Z,100769.41
2022-08-19T15:30:56.702Z,100769.28
2022-08-19T15:33:23.236Z,100780.00
2022-08-19T15:35:49.957Z,100786.25
2022-08-19T15:38:16.533Z,100795.63
2022-08-19T15:40:43.118Z,100797.41
2022-08-19T15:43:09.855Z,100799.47
2022-08-19T15:45:37.911Z,100796.34
2022-08-19T15:48:05.083Z,100809.56
2022-08-19T15:50:32.283Z,100805.59
2022-08-19T15:53:01.353Z,100801.63
2022-08-19T15:55:33.301Z,100808.16
2022-08-19T15:58:01.809Z,100803.44
2022-08-19T16:00:28.407Z,100803.81
2022-08-19T16:02:56.354Z,100807.63
2022-08-19T16:05:26.531Z,100803.69
2022-08-19T16:07:53.386Z,100806.56
2022-08-19T16:10:26.429Z,100802.34
2022-08-19T16:12:54.367Z,100788.16
2022-08-19T16:15:21.276Z,100793.91
2022-08-19T16:17:55.434Z,100802.47
2022-08-19T16:20:26.046Z,100789.97
2022-08-19T16:22:54.502Z,100795.47
2022-08-19T16:25:21.142Z,100792.13
2022-08-19T16:27:54.243Z,100789.38
2022-08-19T16:30:33.691Z,100793.41
2022-08-19T16:33:00.288Z,100792.31
2022-08-19T16:35:28.223Z,100791.47
2022-08-19T16:37:54.900Z,100794.94
2022-08-19T16:40:22.798Z,100799.75
2022-08-19T16:42:49.606Z,100797.34
2022-08-19T16:45:16.183Z,100795.66
2022-08-19T16:47:42.780Z,100811.84
2022-08-19T16:50:09.657Z,100802.94
2022-08-19T16:52:37.619Z,100801.28
2022-08-19T16:55:05.279Z,100817.22
2022-08-19T16:57:31.973Z,100811.94
2022-08-19T16:59:58.568Z,100816.88
2022-08-19T17:02:29.499Z,100827.53
2022-08-19T17:04:58.785Z,100823.09
2022-08-19T17:07:26.972Z,100813.97
2022-08-19T17:09:55.177Z,100812.06
2022-08-19T17:12:22.198Z,100815.03
2022-08-19T17:14:57.565Z,100822.72
2022-08-19T17:17:28.785Z,100819.34
2022-08-19T17:19:56.021Z,100808.56
2022-08-19T17:22:22.746Z,100812.38
2022-08-19T17:24:49.417Z,100815.16
2022-08-19T17:27:17.328Z,100795.19
2022-08-19T17:29:46.917Z,100805.03
2022-08-19T17:32:14.055Z,100809.13
2022-08-19T17:34:40.834Z,100807.63
2022-08-19T17:37:07.458Z,100803.66
2022-08-19T17:39:37.149Z,100800.91
2022-08-19T17:42:06.787Z,100796.50
2022-08-19T17:44:36.391Z,100793.72
2022-08-19T17:47:03.156Z,100793.72
2022-08-19T17:49:29.783Z,100795.88
2022-08-19T17:51:59.414Z,100792.47
2022-08-19T17:54:31.910Z,100795.25
2022-08-19T17:57:00.442Z,100801.00
2022-08-19T17:59:30.091Z,100810.59
2022-08-19T18:01:58.206Z,100814.84
2022-08-19T18:04:26.189Z,100823.13
2022-08-19T18:06:55.100Z,100820.38
2022-08-19T18:09:24.590Z,100829.13
2022-08-19T18:11:53.671Z,100835.97
2022-08-19T18:14:20.854Z,100835.13
2022-08-19T18:16:47.407Z,100834.25
2022-08-19T18:19:15.370Z,100836.41
2022-08-19T18:21:41.938Z,100835.81
2022-08-19T18:24:08.582Z,100846.22
2022-08-19T18:26:35.161Z,100850.03
2022-08-19T18:29:01.791Z,100858.56
2022-08-19T18:31:28.533Z,100845.00
2022-08-19T18:33:55.219Z,100850.50
2022-08-19T18:36:50.120Z,100844.16
2022-08-19T18:39:09.806Z,100847.38
2022-08-19T18:41:38.936Z,100845.47
2022-08-19T18:44:05.470Z,100855.88
2022-08-19T18:46:33.036Z,100855.03
2022-08-19T18:49:03.586Z,100866.31
2022-08-19T18:51:32.071Z,100867.16
2022-08-19T18:53:59.318Z,100864.13
2022-08-19T18:56:27.715Z,100881.53
2022-08-19T18:58:54.690Z,100874.09
2022-08-19T19:01:25.042Z,100883.22
2022-08-19T19:03:54.630Z,100889.34
2022-08-19T19:06:24.519Z,100885.13
2022-08-19T19:08:53.751Z,100886.47
2022-08-19T19:11:24.606Z,100891.97
2022-08-19T19:13:51.406Z,100893.88
2022-08-19T19:16:22.429Z,100901.09
2022-08-19T19:18:50.939Z,100906.63
2022-08-19T19:21:17.713Z,100904.06
2022-08-19T19:23:44.274Z,100906.19
2022-08-19T19:26:13.268Z,100904.53
2022-08-19T19:28:41.239Z,100905.59
2022-08-19T19:31:12.721Z,100915.78
2022-08-19T19:33:40.012Z,100915.56
2022-08-19T19:36:06.813Z,100905.59
2022-08-19T19:38:33.415Z,100905.34
2022-08-19T19:41:00.111Z,100904.53
2022-08-19T19:43:28.093Z,100902.84
2022-08-19T19:45:54.804Z,100905.81
2022-08-19T19:48:21.375Z,100902.22
2022-08-19T19:50:53.937Z,100918.75
2022-08-19T19:53:24.102Z,100927.03
2022-08-19T19:55:53.720Z,100924.91
2022-08-19T19:58:21.277Z,100932.13
2022-08-19T20:00:58.051Z,100923.22
2022-08-19T20:03:24.785Z,100922.59
2022-08-19T20:05:51.391Z,100926.19
2022-08-19T20:08:18.552Z,100919.22
2022-08-19T20:10:46.024Z,100928.56
2022-08-19T20:13:13.016Z,100925.81
2022-08-19T20:15:42.626Z,100931.31
2022-08-19T20:18:11.658Z,100930.47
2022-08-19T20:20:39.119Z,100927.13
2022-08-19T20:23:06.228Z,100928.41
2022-08-19T20:25:33.260Z,100929.25
2022-08-19T20:27:59.901Z,100925.63
2022-08-19T20:30:28.557Z,100919.53
2022-08-19T20:32:57.672Z,100922.75
2022-08-19T20:35:25.693Z,100915.53
2022-08-19T20:37:57.555Z,100905.78
2022-08-19T20:40:25.030Z,100902.19
2022-08-19T20:42:51.656Z,100906.03
2022-08-19T20:45:32.136Z,100900.94
2022-08-19T20:48:00.173Z,100900.09
2022-08-19T20:50:30.179Z,100904.81
2022-08-19T20:52:57.634Z,100913.28
2022-08-19T20:55:24.825Z,100909.69
2022-08-19T20:57:51.640Z,100915.81
2022-08-19T21:00:18.820Z,100910.31
2022-08-19T21:02:46.483Z,100914.72
2022-08-19T21:05:13.104Z,100909.22
2022-08-19T21:07:41.082Z,100903.72
2022-08-19T21:10:08.383Z,100903.09
2022-08-19T21:12:34.986Z,100894.19
2022-08-19T21:15:01.633Z,100890.84
2022-08-19T21:17:28.223Z,100880.25
2022-08-19T21:19:54.788Z,100877.97
2022-08-19T21:22:21.433Z,100870.63
2022-08-19T21:24:49.374Z,100874.44
2022-08-19T21:27:15.926Z,100882.06
2022-08-19T21:29:42.511Z,100889.50
2022-08-19T21:32:09.116Z,100890.75
2022-08-19T21:34:37.068Z,100897.34
2022-08-19T21:37:03.832Z,100909.41
2022-08-19T21:39:30.624Z,100908.81
2022-08-19T21:41:58.524Z,100912.19
2022-08-19T21:44:25.079Z,100914.72
2022-08-19T21:46:51.708Z,100927.44
2022-08-19T21:49:18.283Z,100933.38
2022-08-19T21:51:45.383Z,100936.75
2022-08-19T21:54:13.980Z,100936.31
2022-08-19T21:56:41.358Z,100930.31
2022-08-19T21:59:09.308Z,100929.88
2022-08-19T22:01:35.854Z,100933.25
2022-08-19T22:04:02.428Z,100924.78
2022-08-19T22:06:29.024Z,100920.72
2022-08-19T22:08:55.749Z,100925.16
2022-08-19T22:11:22.432Z,100924.09
2022-08-19T22:13:49.181Z,100929.38
2022-08-19T22:16:17.291Z,100931.91
2022-08-19T22:18:43.841Z,100926.19
2022-08-19T22:21:12.226Z,100913.00
2022-08-19T22:23:39.626Z,100911.09
2022-08-19T22:26:06.262Z,100909.16
2022-08-19T22:28:32.954Z,100912.78
2022-08-19T22:30:59.492Z,100915.53
2022-08-19T22:33:27.853Z,100917.44
2022-08-19T22:35:54.473Z,100911.94
2022-08-19T22:38:22.326Z,100915.75
2022-08-19T22:40:50.343Z,100916.59
2022-08-19T22:43:18.590Z,100917.66
2022-08-19T22:45:49.092Z,100917.06
2022-08-19T22:48:19.728Z,100922.16
2022-08-19T22:50:49.300Z,100916.63
2022-08-19T22:53:15.844Z,100906.94
2022-08-19T22:55:42.432Z,100904.38
2022-08-19T22:58:08.986Z,100904.63
2022-08-19T23:00:35.664Z,100907.81
2022-08-19T23:03:02.295Z,100898.94
2022-08-19T23:05:29.277Z,100890.03
2022-08-19T23:07:58.397Z,100892.19
2022-08-19T23:10:27.806Z,100892.66
2022-08-19T23:12:56.477Z,100904.75
2022-08-19T23:15:26.857Z,100902.22
2022-08-19T23:17:54.874Z,100910.69
2022-08-19T23:20:22.757Z,100909.00
2022-08-19T23:22:49.563Z,100903.69
2022-08-19T23:25:20.090Z,100881.88
2022-08-19T23:27:48.197Z,100867.69
2022-08-19T23:30:14.790Z,100864.78
2022-08-19T23:32:41.373Z,100880.91
2022-08-19T23:35:08.650Z,100892.41
2022-08-19T23:37:35.245Z,100905.53
2022-08-19T23:40:02.112Z,100903.63
2022-08-19T23:42:30.062Z,100907.69
2022-08-19T23:45:00.839Z,100904.28
2022-08-19T23:47:27.367Z,100898.19
2022-08-19T23:49:56.284Z,100902.22
2022-08-19T23:52:22.837Z,100904.34
2022-08-19T23:54:49.423Z,100894.63
2022-08-19T23:57:16.027Z,100890.19
2022-08-19T23:59:44.646Z,100882.34
